Time;durP1;ratioP1;P1;durP2;ratioP2;P2;SDS_P1;SDS_P2;PMS_P1;PMS_P2;Temp;Humidity;BMP_temperature;BMP_pressure;BME280_temperature;BME280_humidity;BME280_pressure;Samples;Min_cycle;Max_cycle;Signal;HPM_P1;HPM_P2
2022/01/27 00:02:53;;;;;;;;;;;;;;;20.58;41.22;102629.72;5111643;28;19919;-84
2022/01/27 00:05:21;;;;;;;;;;;;;;;20.59;40.75;102617.66;5109926;28;19919;-83
2022/01/27 00:26:29;;;;;;;;;;;;;;;20.56;40.76;102600.88;5091067;28;20019;-83
2022/01/27 00:29:31;;;;;;;;;;;;;;;20.55;40.25;102594.56;5089201;28;19964;-83
2022/01/27 00:31:57;;;;;;;;;;;;;;;20.53;40.36;102594.78;5055572;28;19920;-84
2022/01/27 00:34:22;;;;;;;;;;;;;;;20.53;40.30;102600.25;5064254;28;19925;-84
2022/01/27 00:36:47;;;;;;;;;;;;;;;20.53;40.34;102604.94;5056206;28;19917;-84
2022/01/27 00:39:12;;;;;;;;;;;;;;;20.52;40.39;102592.31;5091970;28;19963;-85
2022/01/27 00:41:37;;;;;;;;;;;;;;;20.50;40.28;102587.06;5084954;28;20348;-85
2022/01/27 00:44:03;;;;;;;;;;;;;;;20.51;40.32;102586.00;5112213;27;19921;-84
2022/01/27 00:46:32;;;;;;;;;;;;;;;20.50;40.17;102591.75;5092047;28;19948;-85
2022/01/27 00:48:57;;;;;;;;;;;;;;;20.49;40.19;102579.13;5093659;27;19916;-85
2022/01/27 00:51:24;;;;;;;;;;;;;;;20.49;40.12;102568.16;5095457;28;19920;-84
2022/01/27 00:54:00;;;;;;;;;;;;;;;20.48;40.01;102563.72;5083993;28;20058;-85
2022/01/27 00:56:34;;;;;;;;;;;;;;;20.47;40.11;102548.38;5052504;28;20276;-85
2022/01/27 00:59:22;;;;;;;;;;;;;;;20.47;40.11;102556.59;5090415;28;19923;-86
2022/01/27 01:04:46;;;;;;;;;;;;;;;20.45;40.11;102567.00;5060126;28;19920;-85
2022/01/27 01:07:12;;;;;;;;;;;;;;;20.44;39.84;102554.38;5052380;28;19963;-85
2022/01/27 01:14:47;;;;;;;;;;;;;;;20.42;39.83;102543.66;5074921;28;19921;-86
2022/01/27 01:31:12;;;;;;;;;;;;;;;20.39;39.64;102535.16;5043321;28;19920;-85
2022/01/27 01:33:27;;;;;;;;;;;;;;;20.37;39.71;102529.09;5059272;28;20268;-85
2022/01/27 01:36:04;;;;;;;;;;;;;;;20.36;39.73;102517.28;5050693;28;19925;-87
2022/01/27 01:38:30;;;;;;;;;;;;;;;20.36;39.70;102510.94;5027682;28;19963;-87
2022/01/27 01:40:56;;;;;;;;;;;;;;;20.35;39.74;102493.66;5035100;28;19963;-87
2022/01/27 01:43:22;;;;;;;;;;;;;;;20.35;39.59;102493.66;5033967;28;20258;-86
2022/01/27 01:45:48;;;;;;;;;;;;;;;20.35;39.71;102503.81;5058791;28;19912;-91
2022/01/27 01:48:16;;;;;;;;;;;;;;;20.34;39.61;102502.19;5065226;28;19940;-86
2022/01/27 01:50:43;;;;;;;;;;;;;;;20.33;39.45;102512.31;5073457;28;20356;-86
2022/01/27 01:53:08;;;;;;;;;;;;;;;20.33;39.31;102504.06;5078353;28;20072;-86
2022/01/27 01:55:33;;;;;;;;;;;;;;;20.32;39.59;102510.66;5062657;28;20371;-85
2022/01/27 01:58:00;;;;;;;;;;;;;;;20.31;39.30;102501.63;5041465;28;19917;-86
2022/01/27 02:00:26;;;;;;;;;;;;;;;20.31;39.61;102500.78;5054743;28;19939;-85
2022/01/27 02:02:51;;;;;;;;;;;;;;;20.31;39.47;102489.81;5070301;28;20316;-89
2022/01/27 02:05:18;;;;;;;;;;;;;;;20.29;39.40;102484.59;5066290;28;20027;-86
2022/01/27 02:08:10;;;;;;;;;;;;;;;20.29;39.24;102481.84;5054067;28;19917;-88
2022/01/27 02:17:58;;;;;;;;;;;;;;;20.29;39.36;102464.56;5035268;28;19921;-86
2022/01/27 02:19:12;;;;;;;;;;;;;;;20.25;39.15;102447.78;5052047;28;19923;-89
2022/01/27 02:21:44;;;;;;;;;;;;;;;20.25;39.15;102457.94;5056109;28;19959;-86
2022/01/27 02:24:09;;;;;;;;;;;;;;;20.24;39.38;102462.59;5075879;28;19912;-88
2022/01/27 02:26:35;;;;;;;;;;;;;;;20.24;39.16;102470.84;5097658;28;19920;-86
2022/01/27 02:29:00;;;;;;;;;;;;;;;20.23;39.47;102473.84;5065623;28;19916;-86
2022/01/27 02:31:25;;;;;;;;;;;;;;;20.23;39.17;102476.56;5091498;28;19920;-86
2022/01/27 02:33:57;;;;;;;;;;;;;;;20.22;39.15;102474.94;5096185;28;19973;-85
2022/01/27 02:36:22;;;;;;;;;;;;;;;20.21;39.35;102463.16;5072550;28;19912;-85
2022/01/27 02:38:48;;;;;;;;;;;;;;;20.21;39.14;102454.91;5096258;28;19923;-86
2022/01/27 02:41:16;;;;;;;;;;;;;;;20.20;39.20;102453.25;5073369;28;19927;-86
2022/01/27 02:43:41;;;;;;;;;;;;;;;20.18;39.07;102447.19;5093846;28;19935;-87
2022/01/27 02:46:08;;;;;;;;;;;;;;;20.18;39.09;102449.13;5075615;28;20345;-86
2022/01/27 02:48:34;;;;;;;;;;;;;;;20.17;39.01;102448.28;5080661;28;19916;-86
2022/01/27 02:50:59;;;;;;;;;;;;;;;20.16;39.22;102438.44;5060108;28;19977;-86
2022/01/27 02:53:24;;;;;;;;;;;;;;;20.16;39.26;102435.69;5046284;28;19920;-86
2022/01/27 02:55:49;;;;;;;;;;;;;;;20.15;39.10;102434.00;5071170;28;20387;-86
2022/01/27 02:58:16;;;;;;;;;;;;;;;20.15;39.22;102408.50;5109801;28;20014;-86
2022/01/27 03:00:41;;;;;;;;;;;;;;;20.14;39.01;102409.59;5078090;28;20312;-86
2022/01/27 03:03:07;;;;;;;;;;;;;;;20.14;39.04;102404.13;5087674;28;20390;-84
2022/01/27 03:05:32;;;;;;;;;;;;;;;20.14;39.20;102415.91;5100437;28;20256;-85
2022/01/27 03:07:57;;;;;;;;;;;;;;;20.13;39.00;102410.69;5090621;28;20007;-87
2022/01/27 03:10:26;;;;;;;;;;;;;;;20.12;39.13;102417.25;5084454;28;19925;-85
2022/01/27 03:12:57;;;;;;;;;;;;;;;20.12;39.18;102420.00;5066588;28;19917;-86
2022/01/27 03:15:22;;;;;;;;;;;;;;;20.12;38.98;102420.00;5079391;28;19961;-85
2022/01/27 03:17:47;;;;;;;;;;;;;;;20.10;39.12;102398.31;5082435;28;20321;-86
2022/01/27 03:20:13;;;;;;;;;;;;;;;20.09;38.93;102411.22;5093844;28;20069;-86
2022/01/27 03:22:38;;;;;;;;;;;;;;;20.09;38.99;102404.91;5091375;28;19921;-86
2022/01/27 03:25:03;;;;;;;;;;;;;;;20.08;39.00;102389.53;5068506;28;19928;-86
2022/01/27 03:27:29;;;;;;;;;;;;;;;20.08;39.13;102386.78;5084067;28;19915;-88
2022/01/27 03:29:54;;;;;;;;;;;;;;;20.07;38.81;102385.97;5097877;28;19989;-86
2022/01/27 03:32:20;;;;;;;;;;;;;;;20.06;39.08;102384.31;5083920;28;19918;-85
2022/01/27 03:34:46;;;;;;;;;;;;;;;20.07;38.93;102390.63;5074703;28;20352;-85
2022/01/27 03:37:11;;;;;;;;;;;;;;;20.06;39.01;102378.03;5087951;28;19912;-85
2022/01/27 03:39:38;;;;;;;;;;;;;;;20.06;39.00;102391.72;5064080;28;19968;-85
2022/01/27 03:42:04;;;;;;;;;;;;;;;20.06;39.03;102389.81;5069965;28;19993;-85
2022/01/27 03:44:29;;;;;;;;;;;;;;;20.04;38.79;102397.47;5097432;28;20317;-85
2022/01/27 03:46:55;;;;;;;;;;;;;;;20.05;39.05;102403.78;5075006;28;19942;-85
2022/01/27 03:49:21;;;;;;;;;;;;;;;20.04;38.86;102397.47;5085331;28;19920;-87
2022/01/27 03:51:46;;;;;;;;;;;;;;;20.04;38.83;102396.66;5100971;28;20377;-85
2022/01/27 03:54:11;;;;;;;;;;;;;;;20.04;38.83;102388.44;5063181;28;19936;-86
2022/01/27 03:56:37;;;;;;;;;;;;;;;20.03;38.83;102373.91;5075200;28;19926;-84
2022/01/27 03:59:02;;;;;;;;;;;;;;;20.03;39.01;102373.91;5070481;28;19912;-87
2022/01/27 04:01:28;;;;;;;;;;;;;;;20.02;39.01;102366.75;5115267;28;19912;-85
2022/01/27 04:03:57;;;;;;;;;;;;;;;20.02;38.76;102372.22;5065621;28;20046;-85
2022/01/27 04:06:31;;;;;;;;;;;;;;;20.01;38.96;102359.63;5095069;28;20230;-85
2022/01/27 04:08:56;;;;;;;;;;;;;;;20.01;39.16;102356.06;5100611;28;20010;-87
2022/01/27 04:11:22;;;;;;;;;;;;;;;20.01;38.90;102350.56;5100142;28;20045;-85
2022/01/27 04:13:47;;;;;;;;;;;;;;;20.00;38.90;102337.94;5074900;28;19920;-85
2022/01/27 04:16:12;;;;;;;;;;;;;;;20.00;38.96;102332.44;5088194;28;19919;-85
2022/01/27 04:18:37;;;;;;;;;;;;;;;20.01;38.99;102334.09;5078399;28;20366;-85
2022/01/27 04:21:03;;;;;;;;;;;;;;;19.98;38.71;102327.25;5112137;28;19919;-89
2022/01/27 04:23:28;;;;;;;;;;;;;;;19.98;38.82;102321.75;5066309;28;19932;-85
2022/01/27 04:25:54;;;;;;;;;;;;;;;19.98;39.10;102337.38;5080068;28;20248;-85
2022/01/27 04:28:25;;;;;;;;;;;;;;;19.98;38.88;102340.09;5071347;28;20327;-85
2022/01/27 04:30:53;;;;;;;;;;;;;;;19.97;38.90;102343.94;5092189;28;20287;-85
2022/01/27 04:33:18;;;;;;;;;;;;;;;19.97;39.05;102324.75;5097684;28;19958;-86
2022/01/27 04:35:47;;;;;;;;;;;;;;;19.96;38.82;102323.94;5072995;28;19966;-86
2022/01/27 04:41:07;;;;;;;;;;;;;;;19.95;38.86;102333.22;5091434;28;20121;-85
2022/01/27 04:43:41;;;;;;;;;;;;;;;19.95;38.86;102326.94;5097506;28;20006;-86
2022/01/27 04:48:42;;;;;;;;;;;;;;;19.94;39.03;102337.09;5099721;28;19917;-86
2022/01/27 04:51:11;;;;;;;;;;;;;;;19.93;38.78;102329.09;5102281;28;19919;-86
2022/01/27 04:53:53;;;;;;;;;;;;;;;19.93;39.01;102321.69;5097771;28;20275;-86
2022/01/27 04:56:20;;;;;;;;;;;;;;;19.92;38.68;102317.31;5087241;28;19936;-85
2022/01/27 04:58:48;;;;;;;;;;;;;;;19.92;38.79;102311.84;5099422;28;19916;-85
2022/01/27 05:01:16;;;;;;;;;;;;;;;19.91;38.68;102301.13;5079527;28;19920;-85
2022/01/27 05:03:50;;;;;;;;;;;;;;;19.91;38.75;102303.88;5078186;28;21691;-85
2022/01/27 05:06:15;;;;;;;;;;;;;;;19.89;38.96;102307.72;5095918;28;19921;-86
2022/01/27 05:08:42;;;;;;;;;;;;;;;19.90;38.68;102314.00;5074758;28;19924;-84
2022/01/27 05:11:16;;;;;;;;;;;;;;;19.89;38.81;102296.75;5092546;28;19928;-88
2022/01/27 05:13:52;;;;;;;;;;;;;;;19.88;38.64;102294.25;5066787;28;19943;-86
2022/01/27 05:16:17;;;;;;;;;;;;;;;19.87;38.63;102287.13;5080270;28;20328;-85
2022/01/27 05:18:43;;;;;;;;;;;;;;;19.87;38.77;102278.91;5058305;28;20004;-84
2022/01/27 05:21:08;;;;;;;;;;;;;;;19.87;38.70;102270.69;5056989;28;19953;-87
2022/01/27 05:23:33;;;;;;;;;;;;;;;19.85;38.76;102273.69;5074456;28;19963;-85
2022/01/27 05:25:58;;;;;;;;;;;;;;;19.85;38.61;102275.59;5122604;27;19915;-85
2022/01/27 05:28:24;;;;;;;;;;;;;;;19.84;38.81;102263.81;5075268;28;19920;-84
2022/01/27 05:30:49;;;;;;;;;;;;;;;19.83;38.64;102267.66;5105057;28;20267;-85
2022/01/27 05:33:14;;;;;;;;;;;;;;;19.83;38.72;102267.66;5098528;28;19963;-85
2022/01/27 05:35:40;;;;;;;;;;;;;;;19.83;38.77;102266.81;5115881;28;19920;-85
2022/01/27 05:38:05;;;;;;;;;;;;;;;19.81;38.52;102267.09;5099686;28;19952;-85
2022/01/27 05:40:30;;;;;;;;;;;;;;;19.82;38.58;102276.16;5083357;28;19947;-86
2022/01/27 05:42:56;;;;;;;;;;;;;;;19.81;38.61;102269.03;5081839;28;19920;-86
2022/01/27 05:45:21;;;;;;;;;;;;;;;19.81;38.53;102266.28;5075031;28;20379;-85
2022/01/27 05:47:46;;;;;;;;;;;;;;;19.80;38.71;102268.19;5078440;28;19974;-86
2022/01/27 05:50:12;;;;;;;;;;;;;;;19.79;38.65;102263.78;5104348;28;19915;-87
2022/01/27 05:52:37;;;;;;;;;;;;;;;19.78;38.65;102270.38;5075395;28;19955;-86
2022/01/27 05:55:02;;;;;;;;;;;;;;;19.78;38.63;102275.03;5070062;28;19916;-86
2022/01/27 05:57:28;;;;;;;;;;;;;;;19.78;38.69;102272.28;5113588;28;20013;-85
2022/01/27 05:59:53;;;;;;;;;;;;;;;19.76;38.52;102261.59;5061663;28;19985;-85
2022/01/27 06:02:18;;;;;;;;;;;;;;;19.77;38.69;102270.63;5058820;28;19920;-85
2022/01/27 06:04:43;;;;;;;;;;;;;;;19.76;38.42;102263.53;5091075;28;20377;-85
2022/01/27 06:07:09;;;;;;;;;;;;;;;19.75;38.51;102253.63;5067167;28;19920;-85
2022/01/27 06:09:34;;;;;;;;;;;;;;;19.76;38.50;102263.53;5090423;28;19923;-86
2022/01/27 06:11:59;;;;;;;;;;;;;;;19.73;38.80;102245.69;5085309;28;19924;-86
2022/01/27 06:14:24;;;;;;;;;;;;;;;19.74;38.64;102250.06;5116256;27;20425;-85
2022/01/27 06:16:50;;;;;;;;;;;;;;;19.73;38.61;102245.69;5089344;28;19928;-85
2022/01/27 06:19:15;;;;;;;;;;;;;;;19.73;38.51;102247.59;5055427;28;19917;-88
2022/01/27 06:21:43;;;;;;;;;;;;;;;19.72;38.55;102241.28;5076587;28;19916;-89
2022/01/27 06:24:08;;;;;;;;;;;;;;;19.71;38.35;102242.38;5070387;28;20014;-85
2022/01/27 06:26:34;;;;;;;;;;;;;;;19.71;38.45;102238.81;5110505;28;20340;-85
2022/01/27 06:28:59;;;;;;;;;;;;;;;19.70;38.72;102237.97;5075499;28;20007;-86
2022/01/27 06:31:24;;;;;;;;;;;;;;;19.71;38.70;102244.31;5080797;28;20022;-86
2022/01/27 06:33:52;;;;;;;;;;;;;;;19.70;38.54;102245.38;5076254;28;20382;-90
2022/01/27 06:36:17;;;;;;;;;;;;;;;19.70;38.54;102234.41;5089142;28;19920;-87
2022/01/27 06:38:42;;;;;;;;;;;;;;;19.71;38.82;102228.69;5071723;28;19981;-84
2022/01/27 06:41:09;;;;;;;;;;;;;;;19.71;38.97;102216.91;5105516;27;19920;-85
2022/01/27 06:43:34;;;;;;;;;;;;;;;19.72;38.98;102221.28;5082736;28;20292;-85
2022/01/27 06:46:00;;;;;;;;;;;;;;;19.72;38.87;102213.88;5062241;28;19920;-82
2022/01/27 06:48:25;;;;;;;;;;;;;;;19.71;39.09;102220.44;5076077;28;19946;-82
2022/01/27 06:50:54;;;;;;;;;;;;;;;19.70;39.02;102221.53;5094514;28;20371;-81
2022/01/27 06:53:20;;;;;;;;;;;;;;;19.71;39.14;102214.16;5092303;28;19927;-83
2022/01/27 06:55:45;;;;;;;;;;;;;;;19.70;38.98;102198.78;5126342;27;19912;-85
2022/01/27 06:58:10;;;;;;;;;;;;;;;19.70;39.16;102210.56;5091327;28;19934;-87
2022/01/27 07:00:36;;;;;;;;;;;;;;;19.70;39.08;102212.47;5088271;28;19928;-85
2022/01/27 07:03:01;;;;;;;;;;;;;;;19.71;39.24;102205.94;5071480;28;19920;-86
2022/01/27 07:05:27;;;;;;;;;;;;;;;19.69;39.06;102206.19;5094332;28;19916;-86
2022/01/27 07:07:52;;;;;;;;;;;;;;;19.70;39.54;102207.81;5079583;28;20003;-86
2022/01/27 07:10:17;;;;;;;;;;;;;;;19.70;39.58;102210.56;5101061;28;20014;-85
2022/01/27 07:12:43;;;;;;;;;;;;;;;19.70;39.48;102221.53;5089249;28;19942;-85
2022/01/27 07:15:08;;;;;;;;;;;;;;;19.71;39.49;102206.75;5084047;28;19994;-85
2022/01/27 07:17:34;;;;;;;;;;;;;;;19.74;39.53;102221.84;5072844;28;19975;-85
2022/01/27 07:19:59;;;;;;;;;;;;;;;19.74;39.72;102219.91;5078349;28;19919;-84
2022/01/27 07:22:24;;;;;;;;;;;;;;;19.76;39.74;102225.94;5050269;28;19920;-85
2022/01/27 07:24:49;;;;;;;;;;;;;;;19.78;39.76;102229.25;5034058;28;19933;-85
2022/01/27 07:27:15;;;;;;;;;;;;;;;19.79;39.70;102225.41;5066022;28;20408;-84
2022/01/27 07:29:40;;;;;;;;;;;;;;;19.83;39.58;102236.66;5064698;28;20253;-84
2022/01/27 07:32:05;;;;;;;;;;;;;;;19.84;39.64;102230.09;5066531;28;19921;-85
2022/01/27 07:34:31;;;;;;;;;;;;;;;19.85;40.14;102238.03;5028884;28;19932;-85
2022/01/27 07:36:59;;;;;;;;;;;;;;;19.88;39.68;102240.25;5038521;28;19921;-85
2022/01/27 07:39:25;;;;;;;;;;;;;;;19.89;39.72;102227.38;5072671;28;19935;-84
2022/01/27 07:41:51;;;;;;;;;;;;;;;19.91;39.80;102229.81;5066030;28;19921;-84
2022/01/27 07:44:16;;;;;;;;;;;;;;;19.92;39.79;102232.31;5071791;28;19974;-84
2022/01/27 07:46:41;;;;;;;;;;;;;;;19.94;39.64;102230.13;5052033;28;20006;-84
2022/01/27 07:49:07;;;;;;;;;;;;;;;19.96;39.70;102235.31;5064210;28;20287;-85
2022/01/27 07:51:32;;;;;;;;;;;;;;;19.96;39.67;102241.66;5042887;28;20344;-84
2022/01/27 07:53:57;;;;;;;;;;;;;;;19.97;39.56;102248.78;5049739;28;19989;-87
2022/01/27 07:56:23;;;;;;;;;;;;;;;20.00;39.59;102242.75;5060305;28;19975;-84
2022/01/27 07:58:48;;;;;;;;;;;;;;;20.02;39.62;102240.56;5054563;28;19927;-86
2022/01/27 08:01:13;;;;;;;;;;;;;;;20.03;39.53;102244.13;5050045;28;20373;-85
2022/01/27 08:03:38;;;;;;;;;;;;;;;20.04;39.64;102246.59;5008587;28;19928;-84
2022/01/27 08:06:04;;;;;;;;;;;;;;;20.06;39.52;102247.16;5009916;28;19975;-84
2022/01/27 08:08:30;;;;;;;;;;;;;;;20.08;39.68;102236.75;5050725;28;20336;-84
2022/01/27 08:10:55;;;;;;;;;;;;;;;20.08;39.55;102231.28;5032056;28;19940;-85
2022/01/27 08:13:20;;;;;;;;;;;;;;;20.10;39.48;102228.25;5070584;28;20011;-84
2022/01/27 08:15:46;;;;;;;;;;;;;;;20.12;39.55;102238.94;5053680;28;20023;-77
2022/01/27 08:18:11;;;;;;;;;;;;;;;20.13;39.76;102232.34;5050197;28;19924;-77
2022/01/27 08:20:37;;;;;;;;;;;;;;;20.14;39.43;102231.28;5017247;28;19988;-82
2022/01/27 08:23:05;;;;;;;;;;;;;;;20.15;39.36;102232.91;5060222;28;19920;-87
2022/01/27 08:25:30;;;;;;;;;;;;;;;20.15;39.47;102228.25;5072422;28;19920;-86
2022/01/27 08:27:58;;;;;;;;;;;;;;;20.16;39.42;102232.66;5091700;28;19923;-85
2022/01/27 08:30:27;;;;;;;;;;;;;;;20.17;39.39;102239.78;5086230;28;20319;-88
2022/01/27 08:33:04;;;;;;;;;;;;;;;20.17;39.39;102237.03;5055022;28;19920;-85
2022/01/27 08:35:30;;;;;;;;;;;;;;;20.18;39.45;102235.13;5075355;28;19920;-87
2022/01/27 08:37:55;;;;;;;;;;;;;;;20.18;39.35;102244.16;5072058;28;20005;-86
2022/01/27 08:40:20;;;;;;;;;;;;;;;20.18;39.46;102238.66;5070036;28;19946;-86
2022/01/27 08:42:46;;;;;;;;;;;;;;;20.19;39.37;102237.59;5053243;28;19920;-88
2022/01/27 08:45:13;;;;;;;;;;;;;;;20.20;39.57;102244.72;5071633;28;20015;-87
2022/01/27 08:47:39;;;;;;;;;;;;;;;20.21;39.39;102237.31;5055780;28;19916;-86
2022/01/27 08:50:05;;;;;;;;;;;;;;;20.21;39.37;102235.41;5053233;28;19924;-85
2022/01/27 08:52:31;;;;;;;;;;;;;;;20.23;39.56;102240.59;5070821;28;19935;-86
2022/01/27 08:54:56;;;;;;;;;;;;;;;20.24;39.49;102243.09;5069345;28;19921;-85
2022/01/27 08:57:43;;;;;;;;;;;;;;;;;;;;;
2022/01/27 09:00:10;;;;;;;;;;;;;;;20.26;39.35;102232.69;5077009;28;20375;-90
2022/01/27 09:02:35;;;;;;;;;;;;;;;20.28;39.50;102237.88;5073711;28;20306;-90
2022/01/27 09:05:00;;;;;;;;;;;;;;;20.30;39.42;102241.19;5055520;28;19932;-86
2022/01/27 09:07:26;;;;;;;;;;;;;;;20.31;39.57;102238.16;5057516;28;19919;-90
2022/01/27 09:09:51;;;;;;;;;;;;;;;20.34;39.50;102225.00;5084745;28;19963;-86
2022/01/27 09:12:17;;;;;;;;;;;;;;;20.36;39.72;102233.78;5055209;28;19924;-88
2022/01/27 09:14:43;;;;;;;;;;;;;;;20.37;39.55;102228.03;5087201;28;19965;-88
2022/01/27 09:17:09;;;;;;;;;;;;;;;20.40;39.56;102232.97;5056034;28;19939;-87
2022/01/27 09:19:38;;;;;;;;;;;;;;;20.43;39.78;102234.34;5054570;28;19978;-84
2022/01/27 09:22:08;;;;;;;;;;;;;;;20.45;39.79;102227.47;5065308;28;19917;-84
2022/01/27 09:24:48;;;;;;;;;;;;;;;20.48;39.77;102231.59;5039755;28;19967;-83
2022/01/27 09:27:13;;;;;;;;;;;;;;;20.49;39.55;102234.06;5067614;28;19931;-86
2022/01/27 09:29:39;;;;;;;;;;;;;;;20.51;39.66;102220.91;5071478;28;20412;-82
2022/01/27 09:32:05;;;;;;;;;;;;;;;20.56;39.98;102225.56;5053047;28;19921;-87
2022/01/27 09:34:31;;;;;;;;;;;;;;;20.57;39.92;102230.00;5070327;28;19916;-87
2022/01/27 09:36:57;;;;;;;;;;;;;;;20.59;39.79;102224.22;5073940;28;20303;-86
2022/01/27 09:39:23;;;;;;;;;;;;;;;20.61;39.62;102225.56;5038014;28;19923;-93
2022/01/27 09:42:04;;;;;;;;;;;;;;;20.63;39.68;102233.56;5055471;28;20010;-95
2022/01/27 09:44:53;;;;;;;;;;;;;;;20.66;39.60;102233.00;5073875;28;20438;-91
2022/01/27 09:47:41;;;;;;;;;;;;;;;20.67;39.71;102229.19;5042169;28;19924;-92
2022/01/27 09:50:22;;;;;;;;;;;;;;;20.69;39.73;102233.28;5082389;28;19928;-86
2022/01/27 09:52:47;;;;;;;;;;;;;;;20.71;39.77;102227.50;5054407;28;19920;-87
2022/01/27 09:55:13;;;;;;;;;;;;;;;20.73;39.89;102239.88;5082290;28;20011;-86
2022/01/27 09:57:38;;;;;;;;;;;;;;;20.74;39.74;102246.19;5037362;28;19955;-91
2022/01/27 10:00:06;;;;;;;;;;;;;;;20.74;39.77;102243.47;5069141;28;19930;-90
2022/01/27 10:02:31;;;;;;;;;;;;;;;20.75;39.52;102237.66;5080900;28;20259;-94
2022/01/27 10:04:57;;;;;;;;;;;;;;;20.76;39.74;102243.97;5036922;28;19916;-86
2022/01/27 10:07:26;;;;;;;;;;;;;;;20.77;39.55;102239.34;5085450;28;19916;-87
2022/01/27 10:09:59;;;;;;;;;;;;;;;20.78;39.56;102235.47;5050977;28;20402;-86
2022/01/27 10:12:26;;;;;;;;;;;;;;;20.78;39.73;102238.22;5068071;28;19978;-86
2022/01/27 10:15:03;;;;;;;;;;;;;;;20.80;39.80;102249.75;5052151;28;19925;-86
2022/01/27 10:17:33;;;;;;;;;;;;;;;20.80;39.59;102249.75;5057392;28;19916;-86
2022/01/27 10:20:13;;;;;;;;;;;;;;;20.81;39.52;102251.41;5085925;28;19916;-91
2022/01/27 10:22:38;;;;;;;;;;;;;;;20.81;39.56;102241.22;5069577;28;20365;-91
2022/01/27 10:25:09;;;;;;;;;;;;;;;20.82;39.85;102231.09;5048890;28;19947;-87
2022/01/27 10:32:54;;;;;;;;;;;;;;;20.85;39.82;102244.28;5069912;28;19959;-85
2022/01/27 10:35:21;;;;;;;;;;;;;;;20.85;39.57;102239.59;5068653;28;20387;-86
2022/01/27 10:37:56;;;;;;;;;;;;;;;20.85;39.62;102247.84;5070019;28;19919;-86
2022/01/27 10:40:27;;;;;;;;;;;;;;;20.84;39.66;102245.34;5065010;28;19916;-88
2022/01/27 10:43:05;;;;;;;;;;;;;;;20.83;39.63;102243.72;5084845;28;19951;-93
2022/01/27 10:45:33;;;;;;;;;;;;;;;20.82;39.74;102237.41;5054466;28;19916;-90
2022/01/27 10:48:14;;;;;;;;;;;;;;;20.84;39.57;102246.19;5068472;28;19939;-87
2022/01/27 10:50:55;;;;;;;;;;;;;;;20.85;39.52;102241.53;5053111;28;20348;-92
2022/01/27 10:53:31;;;;;;;;;;;;;;;;;;;;;
2022/01/27 10:56:04;;;;;;;;;;;;;;;20.88;39.52;102229.97;5069503;28;19920;-91
2022/01/27 10:58:31;;;;;;;;;;;;;;;20.89;39.67;102226.97;5047303;28;19931;-89
2022/01/27 11:00:58;;;;;;;;;;;;;;;20.92;39.75;102231.09;5051858;28;19935;-85
2022/01/27 11:03:35;;;;;;;;;;;;;;;20.93;39.75;102229.97;5052018;28;19982;-91
2022/01/27 11:06:37;;;;;;;;;;;;;;;;;;;;;
2022/01/27 11:09:21;;;;;;;;;;;;;;;20.97;39.83;102236.56;5069133;28;19935;-88
2022/01/27 11:11:52;;;;;;;;;;;;;;;20.99;39.69;102233.53;5046326;28;19916;-90
2022/01/27 11:14:34;;;;;;;;;;;;;;;21.00;39.64;102233.25;5035667;28;19972;-90
2022/01/27 11:22:42;;;;;;;;;;;;;;;21.06;39.79;102225.81;5067226;28;19912;-85
2022/01/27 11:27:58;;;;;;;;;;;;;;;21.08;39.60;102221.69;5071851;28;19935;-95
2022/01/27 11:31:11;;;;;;;;;;;;;;;21.10;39.83;102219.50;5049692;28;19942;-93
2022/01/27 11:33:58;;;;;;;;;;;;;;;21.12;39.84;102214.56;5034452;28;19928;-91
2022/01/27 11:36:29;;;;;;;;;;;;;;;21.14;39.74;102200.53;5010594;28;19917;-90
2022/01/27 11:39:13;;;;;;;;;;;;;;;21.15;39.94;102211.25;5035815;28;19970;-94
2022/01/27 11:41:53;;;;;;;;;;;;;;;21.18;39.70;102204.38;5055566;28;19920;-94
2022/01/27 11:44:26;;;;;;;;;;;;;;;21.20;39.83;102195.88;5050824;28;20371;-84
2022/01/27 11:47:24;;;;;;;;;;;;;;;21.20;39.68;102193.94;5050760;28;19951;-85
2022/01/27 11:49:56;;;;;;;;;;;;;;;21.22;39.93;102190.88;5029055;28;19923;-90
2022/01/27 11:52:31;;;;;;;;;;;;;;;21.24;39.74;102203.25;5068936;28;19912;-94
2022/01/27 11:54:58;;;;;;;;;;;;;;;21.24;39.59;102199.69;5067344;28;19974;-87
2022/01/27 11:57:45;;;;;;;;;;;;;;;21.23;39.53;102193.38;5051838;28;19929;-86
2022/01/27 12:00:29;;;;;;;;;;;;;;;21.21;39.62;102187.31;5066465;28;20427;-85
2022/01/27 12:03:01;;;;;;;;;;;;;;;21.21;39.74;102186.50;5065571;28;19927;-84
2022/01/27 12:05:34;;;;;;;;;;;;;;;21.16;39.70;102190.91;5079108;28;19917;-86
2022/01/27 12:08:15;;;;;;;;;;;;;;;21.15;39.39;102203.00;5070097;28;19955;-86
2022/01/27 12:10:46;;;;;;;;;;;;;;;21.12;39.44;102198.06;5075981;28;20421;-87
2022/01/27 12:13:39;;;;;;;;;;;;;;;21.11;39.54;102190.09;5070996;28;19960;-86
2022/01/27 12:18:59;;;;;;;;;;;;;;;21.06;39.57;102187.38;5065735;28;20280;-86
2022/01/27 12:21:28;;;;;;;;;;;;;;;21.05;39.47;102193.97;5066458;28;19933;-89
2022/01/27 12:24:15;;;;;;;;;;;;;;;21.03;39.64;102194.25;5066715;28;20002;-88
2022/01/27 12:26:50;;;;;;;;;;;;;;;21.04;39.53;102195.06;5085852;28;19952;-87
2022/01/27 12:29:22;;;;;;;;;;;;;;;21.05;39.65;102192.03;5073920;28;20344;-83
2022/01/27 12:31:48;;;;;;;;;;;;;;;21.06;39.55;102192.88;5036631;28;19920;-87
2022/01/27 12:34:13;;;;;;;;;;;;;;;21.08;39.67;102187.91;5054651;28;19916;-85
2022/01/27 12:36:39;;;;;;;;;;;;;;;21.08;39.48;102175.00;5038692;28;19920;-81
2022/01/27 12:39:05;;;;;;;;;;;;;;;21.11;39.58;102176.38;5068663;28;20310;-86
2022/01/27 12:41:37;;;;;;;;;;;;;;;21.13;39.59;102176.91;5069390;28;19924;-82
2022/01/27 12:44:09;;;;;;;;;;;;;;;21.13;39.46;102166.75;5073906;28;19922;-83
2022/01/27 12:46:34;;;;;;;;;;;;;;;21.15;39.76;102166.47;5085125;28;20275;-84
2022/01/27 12:49:01;;;;;;;;;;;;;;;21.16;39.68;102166.19;5074532;28;19920;-82
2022/01/27 12:51:27;;;;;;;;;;;;;;;21.19;39.76;102164.78;5081954;28;19959;-82
2022/01/27 12:54:02;;;;;;;;;;;;;;;21.20;39.80;102166.47;5052102;28;19966;-80
2022/01/27 12:56:27;;;;;;;;;;;;;;;21.23;39.78;102170.56;5069638;28;20360;-80
2022/01/27 12:58:52;;;;;;;;;;;;;;;21.23;39.90;102168.63;5036479;28;19916;-84
2022/01/27 13:01:19;;;;;;;;;;;;;;;21.24;39.63;102170.28;5054213;28;20364;-80
2022/01/27 13:04:00;;;;;;;;;;;;;;;21.26;39.98;102164.50;5084720;28;19931;-85
2022/01/27 13:06:30;;;;;;;;;;;;;;;21.27;39.95;102166.97;5071080;28;20404;-83
2022/01/27 13:09:11;;;;;;;;;;;;;;;21.28;39.87;102160.38;5071537;28;20359;-83
2022/01/27 13:11:39;;;;;;;;;;;;;;;21.30;39.37;102160.09;5038760;28;20007;-85
2022/01/27 13:14:05;;;;;;;;;;;;;;;21.32;39.78;102163.41;5055757;28;19920;-84
2022/01/27 13:16:38;;;;;;;;;;;;;;;21.32;39.94;102161.47;5055710;28;19947;-85
2022/01/27 13:19:09;;;;;;;;;;;;;;;21.34;39.73;102152.91;5083845;28;19921;-88
2022/01/27 13:21:37;;;;;;;;;;;;;;;21.34;39.92;102155.66;5088627;28;20000;-79
2022/01/27 13:24:10;;;;;;;;;;;;;;;21.36;39.52;102159.78;5056421;28;20015;-82
2022/01/27 13:26:35;;;;;;;;;;;;;;;21.37;40.02;102157.88;5066510;28;20420;-81
2022/01/27 13:29:01;;;;;;;;;;;;;;;21.38;39.83;102165.00;5032409;28;20015;-79
2022/01/27 13:31:27;;;;;;;;;;;;;;;21.38;40.05;102154.88;5047192;28;19924;-83
2022/01/27 13:33:53;;;;;;;;;;;;;;;21.41;39.97;102160.91;5015991;28;19955;-85
2022/01/27 13:36:22;;;;;;;;;;;;;;;21.40;39.76;102160.09;5054820;28;20391;-85
2022/01/27 13:39:03;;;;;;;;;;;;;;;21.42;39.97;102155.16;5029080;28;19962;-84
2022/01/27 13:41:29;;;;;;;;;;;;;;;21.42;39.97;102154.28;5009719;28;19955;-83
2022/01/27 13:44:10;;;;;;;;;;;;;;;21.43;39.97;102162.28;5049472;28;19921;-84
2022/01/27 13:46:39;;;;;;;;;;;;;;;21.45;39.55;102159.25;5034138;28;19921;-82
2022/01/27 13:49:05;;;;;;;;;;;;;;;21.45;40.07;102160.06;5047513;28;19917;-87
2022/01/27 13:51:31;;;;;;;;;;;;;;;21.46;39.71;102153.47;5059397;28;19912;-86
2022/01/27 13:54:03;;;;;;;;;;;;;;;21.47;39.74;102162.53;5035646;28;20276;-84
2022/01/27 13:56:39;;;;;;;;;;;;;;;21.47;39.91;102160.63;5033784;28;20372;-84
2022/01/27 13:59:10;;;;;;;;;;;;;;;21.49;39.84;102169.38;5050303;28;19916;-81